Time;durP1;ratioP1;P1;durP2;ratioP2;P2;SDS_P1;SDS_P2;PMS_P1;PMS_P2;Temp;Humidity;BMP_temperature;BMP_pressure;BME280_temperature;BME280_humidity;BME280_pressure;Samples;Min_cycle;Max_cycle;Signal;HPM_P1;HPM_P2
2021/07/20 00:01:48;;;;;;;22.90;12.57;;;13.50;90.50;;;;;;5027682;28;20160;-55
2021/07/20 00:04:14;;;;;;;24.45;12.32;;;13.40;90.50;;;;;;5022959;28;20026;-54
2021/07/20 00:06:40;;;;;;;23.85;12.07;;;13.40;90.60;;;;;;5010398;28;20043;-54
2021/07/20 00:09:06;;;;;;;21.02;12.57;;;13.30;90.70;;;;;;5018641;28;20589;-55
2021/07/20 00:11:34;;;;;;;22.58;12.65;;;13.20;90.80;;;;;;5010497;28;20073;-54
2021/07/20 00:14:00;;;;;;;21.73;12.35;;;13.20;90.90;;;;;;5005880;28;20065;-56
2021/07/20 00:16:26;;;;;;;22.35;12.13;;;13.10;91.00;;;;;;5013753;28;20088;-52
2021/07/20 00:18:52;;;;;;;23.60;12.80;;;13.10;91.00;;;;;;5012650;28;20049;-56
2021/07/20 00:21:18;;;;;;;22.15;12.13;;;13.00;91.10;;;;;;4995072;28;20045;-55
2021/07/20 00:23:43;;;;;;;25.73;13.57;;;13.00;91.20;;;;;;5001203;28;20508;-54
2021/07/20 00:26:10;;;;;;;27.90;13.38;;;13.00;91.40;;;;;;5008782;28;20113;-51
2021/07/20 00:28:36;;;;;;;31.13;13.73;;;13.00;91.50;;;;;;5008450;28;20135;-54
2021/07/20 00:31:03;;;;;;;24.13;13.15;;;13.00;91.50;;;;;;5011570;28;20045;-51
2021/07/20 00:33:30;;;;;;;21.35;13.32;;;13.00;91.50;;;;;;4980085;28;20446;-53
2021/07/20 00:35:56;;;;;;;26.80;13.88;;;13.10;91.50;;;;;;4995974;28;20034;-53
2021/07/20 00:38:22;;;;;;;23.80;12.90;;;13.10;91.50;;;;;;4991052;28;20100;-52
2021/07/20 00:40:47;;;;;;;22.92;12.80;;;13.10;91.50;;;;;;5000667;28;20042;-53
2021/07/20 00:43:13;;;;;;;22.95;13.13;;;13.00;91.60;;;;;;5012336;28;20034;-53
2021/07/20 00:45:40;;;;;;;25.20;12.95;;;13.00;91.60;;;;;;4993247;28;20053;-53
2021/07/20 00:48:06;;;;;;;24.58;13.40;;;13.00;91.70;;;;;;5002117;28;20042;-53
2021/07/20 00:50:43;;;;;;;26.00;13.18;;;13.00;91.60;;;;;;4990697;28;20049;-53
2021/07/20 00:53:11;;;;;;;22.73;13.20;;;13.00;91.80;;;;;;5001275;28;20065;-53
2021/07/20 00:55:37;;;;;;;27.27;12.68;;;13.00;91.70;;;;;;4999688;28;20172;-53
2021/07/20 00:58:05;;;;;;;27.95;14.10;;;13.00;91.80;;;;;;4995589;28;20050;-53
2021/07/20 01:00:31;;;;;;;25.10;13.65;;;13.10;92.00;;;;;;5005484;28;20038;-52
2021/07/20 01:02:57;;;;;;;28.23;14.80;;;13.10;92.00;;;;;;5007394;28;20495;-52
2021/07/20 01:05:24;;;;;;;28.38;13.85;;;13.10;91.90;;;;;;5011141;28;20053;-52
2021/07/20 01:07:51;;;;;;;26.95;13.85;;;13.10;92.00;;;;;;5009967;28;20038;-53
2021/07/20 01:10:18;;;;;;;30.27;14.98;;;13.10;91.90;;;;;;4994130;28;20503;-53
2021/07/20 01:12:45;;;;;;;29.02;14.40;;;13.10;91.90;;;;;;5006101;28;20040;-53
2021/07/20 01:15:13;;;;;;;25.85;13.55;;;13.10;91.90;;;;;;5005324;28;20057;-53
2021/07/20 01:17:41;;;;;;;27.38;13.82;;;13.10;91.90;;;;;;4993069;28;20053;-52
2021/07/20 01:20:15;;;;;;;26.27;13.57;;;13.10;91.80;;;;;;5010069;28;20671;-53
2021/07/20 01:22:44;;;;;;;27.98;13.07;;;13.10;91.80;;;;;;5001044;28;20058;-52
2021/07/20 01:25:12;;;;;;;23.20;12.55;;;13.10;91.70;;;;;;5001391;28;20483;-52
2021/07/20 01:27:46;;;;;;;26.30;13.95;;;13.10;91.70;;;;;;4985440;28;20054;-53
2021/07/20 01:30:13;;;;;;;29.17;14.05;;;13.10;91.70;;;;;;5010614;28;20476;-52
2021/07/20 01:32:43;;;;;;;28.88;13.63;;;13.10;91.70;;;;;;5002715;28;20137;-53
2021/07/20 01:35:10;;;;;;;22.45;12.77;;;13.10;91.90;;;;;;5007261;28;20045;-53
2021/07/20 01:37:38;;;;;;;23.65;12.50;;;13.10;91.60;;;;;;4992234;28;20088;-50
2021/07/20 01:40:06;;;;;;;25.17;12.75;;;13.10;91.60;;;;;;5007430;28;20041;-52
2021/07/20 01:42:34;;;;;;;21.58;11.63;;;13.10;91.60;;;;;;4987847;28;20058;-50
2021/07/20 01:45:06;;;;;;;20.80;11.73;;;13.10;91.50;;;;;;4992931;28;20064;-53
2021/07/20 01:47:33;;;;;;;23.52;11.93;;;13.00;91.70;;;;;;5000032;28;20034;-51
2021/07/20 01:50:01;;;;;;;20.63;11.60;;;12.90;91.30;;;;;;4999552;28;20039;-51
2021/07/20 01:52:27;;;;;;;20.80;11.95;;;12.80;91.30;;;;;;5005411;28;20074;-51
2021/07/20 01:54:54;;;;;;;21.88;11.90;;;12.80;91.40;;;;;;5001457;28;20128;-50
2021/07/20 01:57:20;;;;;;;18.75;11.13;;;12.70;91.50;;;;;;5007600;28;20033;-53
2021/07/20 01:59:47;;;;;;;18.42;10.82;;;12.70;91.50;;;;;;4994328;28;20051;-54
2021/07/20 02:02:30;;;;;;;19.10;10.73;;;12.60;91.50;;;;;;4995714;28;20052;-52
2021/07/20 02:10:29;;;;;;;19.95;9.80;;;12.40;91.60;;;;;;4998984;28;20085;-52
2021/07/20 02:12:57;;;;;;;18.35;10.35;;;12.30;91.50;;;;;;4998181;28;20034;-50
2021/07/20 02:15:24;;;;;;;20.45;10.85;;;12.20;91.60;;;;;;4998590;28;20053;-52
2021/07/20 02:17:52;;;;;;;20.42;10.43;;;12.10;91.70;;;;;;4994764;28;20045;-49
2021/07/20 02:20:20;;;;;;;25.15;12.30;;;12.00;91.80;;;;;;5008546;28;20380;-53
2021/07/20 02:22:47;;;;;;;24.17;11.90;;;12.00;92.10;;;;;;5008934;28;20046;-52
2021/07/20 02:25:15;;;;;;;22.67;12.13;;;11.90;92.00;;;;;;5004271;28;20035;-52
2021/07/20 02:27:42;;;;;;;22.52;11.57;;;11.90;92.20;;;;;;5002995;28;20064;-49
2021/07/20 02:30:13;;;;;;;22.05;11.48;;;12.00;92.30;;;;;;4979867;28;20048;-52
2021/07/20 02:32:42;;;;;;;23.70;11.85;;;12.00;92.30;;;;;;5001960;28;20045;-49
2021/07/20 02:35:11;;;;;;;24.50;11.68;;;12.00;92.30;;;;;;5007302;28;20038;-52
2021/07/20 02:37:40;;;;;;;21.45;11.55;;;12.00;92.30;;;;;;5001025;28;20383;-52
2021/07/20 02:40:08;;;;;;;24.85;12.02;;;12.00;92.40;;;;;;5000953;28;20058;-51
2021/07/20 02:42:35;;;;;;;22.98;10.95;;;12.00;92.40;;;;;;5013611;28;20200;-52
2021/07/20 02:45:03;;;;;;;19.92;10.50;;;12.00;92.40;;;;;;5015810;28;20069;-52
2021/07/20 02:47:32;;;;;;;19.88;10.98;;;12.00;92.40;;;;;;5018599;28;20051;-53
2021/07/20 02:49:58;;;;;;;17.23;10.13;;;12.00;92.30;;;;;;5022240;28;20042;-51
2021/07/20 02:52:28;;;;;;;21.20;11.23;;;12.00;92.30;;;;;;5014882;28;20042;-52
2021/07/20 02:54:55;;;;;;;21.20;11.73;;;12.00;92.40;;;;;;5014366;28;20399;-53
2021/07/20 02:57:22;;;;;;;21.50;11.45;;;12.10;92.50;;;;;;5005262;28;20520;-52
2021/07/20 02:59:48;;;;;;;23.75;11.27;;;12.10;92.50;;;;;;5011468;28;20124;-52
2021/07/20 03:02:15;;;;;;;23.63;11.25;;;12.20;92.50;;;;;;4995262;28;20456;-52
2021/07/20 03:04:41;;;;;;;23.60;12.13;;;12.20;92.50;;;;;;4979019;28;20046;-51
2021/07/20 03:07:11;;;;;;;21.92;11.18;;;12.30;92.60;;;;;;5012662;28;20396;-49
2021/07/20 03:09:38;;;;;;;20.95;11.43;;;12.30;92.60;;;;;;5010448;28;20125;-51
2021/07/20 03:12:11;;;;;;;22.75;11.63;;;12.30;92.90;;;;;;5002741;28;20057;-50
2021/07/20 03:14:39;;;;;;;19.35;10.52;;;12.40;92.70;;;;;;5007818;28;20446;-52
2021/07/20 03:17:07;;;;;;;18.90;10.30;;;12.40;92.70;;;;;;4995191;28;20483;-51
2021/07/20 03:19:34;;;;;;;21.92;11.15;;;12.50;92.90;;;;;;5006670;28;20037;-51
2021/07/20 03:22:09;;;;;;;20.95;11.25;;;12.50;92.80;;;;;;5013214;28;20042;-48
2021/07/20 03:24:37;;;;;;;20.52;11.07;;;12.50;92.90;;;;;;5013156;28;20304;-52
2021/07/20 03:27:06;;;;;;;23.38;12.00;;;12.50;92.80;;;;;;5013115;28;20026;-49
2021/07/20 03:29:40;;;;;;;20.25;11.32;;;12.60;92.80;;;;;;4996290;28;20058;-53
2021/07/20 03:32:11;;;;;;;18.92;10.80;;;12.60;92.90;;;;;;5026376;28;20061;-52
2021/07/20 03:34:38;;;;;;;21.10;10.68;;;12.70;92.90;;;;;;5012955;28;20046;-52
2021/07/20 03:37:04;;;;;;;19.20;10.18;;;12.70;92.80;;;;;;5012725;28;20045;-53
2021/07/20 03:39:30;;;;;;;21.23;11.27;;;12.70;92.80;;;;;;5013742;28;20464;-53
2021/07/20 03:41:58;;;;;;;19.02;9.95;;;12.70;92.90;;;;;;5012180;28;20073;-52
2021/07/20 03:44:25;;;;;;;21.70;10.60;;;12.70;92.80;;;;;;5010241;28;20042;-49
2021/07/20 03:46:51;;;;;;;18.95;10.90;;;12.80;93.00;;;;;;5013156;28;20041;-52
2021/07/20 03:49:19;;;;;;;23.65;11.88;;;12.80;92.80;;;;;;5013216;28;20038;-51
2021/07/20 03:51:48;;;;;;;22.52;11.07;;;12.70;92.90;;;;;;5024158;28;20042;-51
2021/07/20 03:54:14;;;;;;;20.45;10.57;;;12.80;92.90;;;;;;5028662;28;20509;-51
2021/07/20 03:56:41;;;;;;;20.80;10.95;;;12.80;92.90;;;;;;5031159;28;20048;-50
2021/07/20 03:59:09;;;;;;;21.55;10.73;;;12.90;93.00;;;;;;5016974;28;20191;-52
2021/07/20 04:01:38;;;;;;;20.10;10.80;;;12.90;93.10;;;;;;5018207;28;20045;-51
2021/07/20 04:04:06;;;;;;;20.00;10.65;;;13.00;93.00;;;;;;5010817;28;20041;-51
2021/07/20 04:06:33;;;;;;;20.35;11.10;;;13.00;93.00;;;;;;5013916;28;20037;-51
2021/07/20 04:09:01;;;;;;;19.40;10.38;;;13.00;93.00;;;;;;5012914;28;20072;-52
2021/07/20 04:11:27;;;;;;;19.92;10.60;;;13.10;93.50;;;;;;5011444;28;20362;-53
2021/07/20 04:13:55;;;;;;;19.70;11.18;;;13.20;92.90;;;;;;5022368;28;20037;-51
2021/07/20 04:16:24;;;;;;;19.75;10.35;;;13.20;92.80;;;;;;5010390;28;20072;-52
2021/07/20 04:18:50;;;;;;;19.75;10.77;;;13.20;92.80;;;;;;5007913;28;20044;-53
2021/07/20 04:21:17;;;;;;;18.70;10.40;;;13.30;92.80;;;;;;5011300;28;20041;-52
2021/07/20 04:23:44;;;;;;;21.77;10.75;;;13.30;92.90;;;;;;5007349;28;20502;-50
2021/07/20 04:26:12;;;;;;;18.08;10.55;;;13.40;93.00;;;;;;5007811;28;20037;-51
2021/07/20 04:28:38;;;;;;;18.88;10.52;;;13.40;93.00;;;;;;5009844;28;20042;-51
2021/07/20 04:31:06;;;;;;;23.15;11.27;;;13.40;93.00;;;;;;5000707;28;20414;-50
2021/07/20 04:33:33;;;;;;;20.83;11.00;;;13.40;93.00;;;;;;5009962;28;20038;-50
2021/07/20 04:36:01;;;;;;;19.98;10.23;;;13.40;93.00;;;;;;5020871;28;20087;-50
2021/07/20 04:38:31;;;;;;;21.65;10.82;;;13.50;93.00;;;;;;5025876;28;20088;-49
2021/07/20 04:40:59;;;;;;;20.52;9.90;;;13.50;93.00;;;;;;5011653;28;20046;-50
2021/07/20 04:43:27;;;;;;;20.00;10.73;;;13.60;93.10;;;;;;5006946;28;20526;-51
2021/07/20 04:45:56;;;;;;;17.85;10.43;;;13.60;93.10;;;;;;5010906;28;20099;-51
2021/07/20 04:48:22;;;;;;;22.80;10.90;;;13.60;93.10;;;;;;5017871;28;20042;-54
2021/07/20 04:50:51;;;;;;;20.75;10.65;;;13.60;93.00;;;;;;5023703;28;20038;-51
2021/07/20 04:53:17;;;;;;;19.73;10.60;;;13.70;93.10;;;;;;5020499;28;20041;-52
2021/07/20 04:55:44;;;;;;;18.83;10.48;;;13.70;93.00;;;;;;5014723;28;20041;-53
2021/07/20 04:58:12;;;;;;;18.75;10.20;;;13.80;92.80;;;;;;5010402;28;20088;-53
2021/07/20 05:00:38;;;;;;;21.92;11.13;;;13.80;92.70;;;;;;5027126;28;20050;-53
2021/07/20 05:03:06;;;;;;;20.88;10.07;;;13.80;92.60;;;;;;4999242;28;20034;-52
2021/07/20 05:05:40;;;;;;;18.92;10.57;;;13.90;92.50;;;;;;5010080;28;20554;-52
2021/07/20 05:08:12;;;;;;;19.00;10.77;;;14.00;92.50;;;;;;5010419;28;20034;-53
2021/07/20 05:10:39;;;;;;;18.42;10.10;;;14.00;92.50;;;;;;5003801;28;20555;-52
2021/07/20 05:13:08;;;;;;;21.52;11.23;;;14.10;92.50;;;;;;5009174;28;20451;-52
2021/07/20 05:15:35;;;;;;;18.30;10.52;;;14.10;92.40;;;;;;5004894;28;20557;-51
2021/07/20 05:18:01;;;;;;;18.13;10.55;;;14.10;92.50;;;;;;5006283;28;20550;-52
2021/07/20 05:20:29;;;;;;;18.35;10.32;;;14.20;92.80;;;;;;5009738;28;20517;-50
2021/07/20 05:22:56;;;;;;;17.75;10.00;;;14.30;92.50;;;;;;5017380;28;20435;-49
2021/07/20 05:25:22;;;;;;;18.95;11.00;;;14.30;92.40;;;;;;5009417;28;20050;-52
2021/07/20 05:27:53;;;;;;;16.55;10.02;;;14.40;92.40;;;;;;5011613;28;20109;-52
2021/07/20 05:30:19;;;;;;;16.88;10.27;;;14.40;92.40;;;;;;5010234;28;20046;-51
2021/07/20 05:32:47;;;;;;;19.73;10.10;;;14.50;92.50;;;;;;5007403;28;20044;-52
2021/07/20 05:35:15;;;;;;;18.27;10.20;;;14.50;92.50;;;;;;5023040;28;20486;-52
2021/07/20 05:37:42;;;;;;;18.83;10.98;;;14.60;92.50;;;;;;5009979;28;20100;-52
2021/07/20 05:40:14;;;;;;;19.00;10.52;;;14.60;92.60;;;;;;5012041;28;20115;-51
2021/07/20 05:42:40;;;;;;;19.25;10.57;;;14.70;92.60;;;;;;5011091;28;20038;-53
2021/07/20 05:45:08;;;;;;;20.70;10.45;;;14.70;92.80;;;;;;4992344;28;20081;-52
2021/07/20 05:47:35;;;;;;;17.98;10.73;;;14.80;92.90;;;;;;5011017;28;20407;-52
2021/07/20 05:50:03;;;;;;;18.15;10.23;;;14.90;92.70;;;;;;5014247;28;20068;-50
2021/07/20 05:52:29;;;;;;;19.70;10.48;;;14.90;92.70;;;;;;5022077;28;20520;-53
2021/07/20 05:54:56;;;;;;;20.50;10.38;;;15.00;92.70;;;;;;5010573;28;20064;-49
2021/07/20 05:57:26;;;;;;;18.58;10.60;;;15.00;92.60;;;;;;4994128;28;20042;-50
2021/07/20 05:59:53;;;;;;;18.67;10.63;;;15.10;92.60;;;;;;5010165;28;20048;-53
2021/07/20 06:02:20;;;;;;;19.23;9.82;;;15.10;92.40;;;;;;5011169;28;20038;-52
2021/07/20 06:04:50;;;;;;;19.73;10.88;;;15.20;92.50;;;;;;5010019;28;20380;-53
2021/07/20 06:07:18;;;;;;;18.40;10.52;;;15.20;92.50;;;;;;5009633;28;20110;-49
2021/07/20 06:09:46;;;;;;;18.67;10.70;;;15.30;92.50;;;;;;5011166;28;20491;-51
2021/07/20 06:12:15;;;;;;;19.30;10.73;;;15.30;92.50;;;;;;5010701;28;20042;-52
2021/07/20 06:14:42;;;;;;;21.58;11.02;;;15.40;92.50;;;;;;5011733;28;20054;-52
2021/07/20 06:17:08;;;;;;;21.05;10.88;;;15.40;92.30;;;;;;5015676;28;20519;-49
2021/07/20 06:19:36;;;;;;;20.40;10.38;;;15.50;92.30;;;;;;5007439;28;20068;-53
2021/07/20 06:22:07;;;;;;;18.63;10.18;;;15.60;92.30;;;;;;5007423;28;20046;-52
2021/07/20 06:24:42;;;;;;;15.80;9.05;;;15.60;92.10;;;;;;4996474;28;20526;-53
2021/07/20 06:27:13;;;;;;;15.98;9.38;;;15.60;91.80;;;;;;5009106;28;20041;-53
2021/07/20 06:29:42;;;;;;;17.08;10.50;;;15.70;91.70;;;;;;5001200;28;20038;-54
2021/07/20 06:32:10;;;;;;;21.70;10.60;;;15.70;91.70;;;;;;4990358;28;20470;-51
2021/07/20 06:34:39;;;;;;;17.88;10.68;;;15.80;91.80;;;;;;5014089;28;20584;-51
2021/07/20 06:37:05;;;;;;;17.25;10.05;;;15.90;91.70;;;;;;5015082;28;20057;-49
2021/07/20 06:39:32;;;;;;;18.50;10.20;;;15.90;91.40;;;;;;5013501;28;20050;-49
2021/07/20 06:42:02;;;;;;;16.50;9.75;;;15.90;91.30;;;;;;5014869;28;20042;-52
2021/07/20 06:44:29;;;;;;;17.20;10.18;;;16.00;91.10;;;;;;5012962;28;20095;-53
2021/07/20 06:46:56;;;;;;;15.35;9.48;;;16.00;91.00;;;;;;5015193;28;20034;-54
2021/07/20 06:49:21;;;;;;;17.73;9.60;;;16.10;91.20;;;;;;5011476;28;20050;-52
2021/07/20 06:51:47;;;;;;;18.33;9.57;;;16.10;90.70;;;;;;5014773;28;20137;-53
2021/07/20 06:54:14;;;;;;;14.88;9.13;;;16.10;90.10;;;;;;5025099;28;20123;-53
2021/07/20 06:56:48;;;;;;;17.00;8.70;;;16.20;90.30;;;;;;5014395;28;20041;-52
2021/07/20 06:59:15;;;;;;;15.32;8.77;;;16.30;87.70;;;;;;5013027;28;20073;-50
2021/07/20 07:01:42;;;;;;;17.10;9.10;;;16.30;87.90;;;;;;5015082;28;20048;-52
2021/07/20 07:04:35;;;;;;;14.60;8.60;;;16.20;87.90;;;;;;4996355;28;20057;-53
2021/07/20 07:07:02;;;;;;;15.52;8.73;;;16.30;84.30;;;;;;5013023;28;20049;-53
2021/07/20 07:09:30;;;;;;;14.82;8.68;;;16.40;83.40;;;;;;5013417;28;20088;-51
2021/07/20 07:12:01;;;;;;;14.02;9.25;;;16.40;82.60;;;;;;5012471;28;20065;-53
2021/07/20 07:14:30;;;;;;;15.45;9.30;;;16.50;80.60;;;;;;5013096;28;20121;-54
2021/07/20 07:16:56;;;;;;;15.60;9.02;;;16.50;81.20;;;;;;5009208;28;20130;-53
2021/07/20 07:19:22;;;;;;;15.75;9.48;;;16.60;81.90;;;;;;5004428;28;20080;-53
2021/07/20 07:21:52;;;;;;;15.73;9.32;;;16.60;82.10;;;;;;5013477;28;20042;-51
2021/07/20 07:24:21;;;;;;;14.98;8.73;;;16.70;81.40;;;;;;5013120;28;20061;-52
2021/07/20 07:26:49;;;;;;;15.70;9.30;;;16.70;82.40;;;;;;5023006;28;20075;-51
2021/07/20 07:29:18;;;;;;;14.32;8.60;;;16.70;82.90;;;;;;5000820;28;20522;-50
2021/07/20 07:31:48;;;;;;;12.48;8.10;;;16.80;82.40;;;;;;5014196;28;20137;-53
2021/07/20 07:34:15;;;;;;;14.15;8.32;;;16.80;82.70;;;;;;4979272;28;20050;-51
2021/07/20 07:36:46;;;;;;;17.10;9.13;;;16.90;82.10;;;;;;4995951;28;20088;-52
2021/07/20 07:39:14;;;;;;;14.60;8.20;;;17.00;81.50;;;;;;5012345;28;20077;-53
2021/07/20 07:41:41;;;;;;;15.50;8.23;;;16.90;79.70;;;;;;5013535;28;20088;-54
2021/07/20 07:44:12;;;;;;;15.88;8.80;;;17.00;77.50;;;;;;5016041;28;20061;-52
2021/07/20 07:46:40;;;;;;;11.60;7.85;;;17.00;79.00;;;;;;5014580;28;20038;-52
2021/07/20 07:49:08;;;;;;;15.80;9.05;;;17.00;78.10;;;;;;5026315;28;20050;-54
2021/07/20 07:51:34;;;;;;;14.85;8.40;;;17.10;79.00;;;;;;5018941;28;20033;-50
2021/07/20 07:54:02;;;;;;;13.38;8.48;;;17.10;80.20;;;;;;5005699;28;20034;-51
2021/07/20 07:56:29;;;;;;;14.73;9.60;;;17.20;81.10;;;;;;5004693;28;20225;-49
2021/07/20 07:58:58;;;;;;;16.73;8.93;;;17.20;81.60;;;;;;5003657;28;20038;-52
2021/07/20 08:01:27;;;;;;;13.25;8.65;;;17.30;81.70;;;;;;4969809;28;20049;-51
2021/07/20 08:03:54;;;;;;;12.32;8.00;;;17.40;81.30;;;;;;5001580;28;20045;-52
2021/07/20 08:06:22;;;;;;;13.25;8.48;;;17.40;80.70;;;;;;5003202;28;20112;-52
2021/07/20 08:08:51;;;;;;;13.13;8.05;;;17.50;80.50;;;;;;5003504;28;20053;-51
2021/07/20 08:11:18;;;;;;;13.65;7.70;;;17.50;79.70;;;;;;5003387;28;20053;-53
2021/07/20 08:13:45;;;;;;;13.35;8.15;;;17.50;79.00;;;;;;5002347;28;20061;-51
2021/07/20 08:16:13;;;;;;;14.02;8.45;;;17.60;78.60;;;;;;5021901;28;20041;-52
2021/07/20 08:18:43;;;;;;;11.43;7.53;;;17.70;79.50;;;;;;5023576;28;20046;-54
2021/07/20 08:21:09;;;;;;;14.25;7.97;;;17.70;78.90;;;;;;5026357;28;20511;-52
2021/07/20 08:23:36;;;;;;;12.90;7.72;;;17.80;78.20;;;;;;5023901;28;20034;-50
2021/07/20 08:26:07;;;;;;;14.45;7.88;;;17.90;78.40;;;;;;5016081;28;20045;-52
2021/07/20 08:28:57;;;;;;;14.18;7.82;;;18.00;77.60;;;;;;5016962;28;20034;-52
2021/07/20 08:31:26;;;;;;;12.00;7.88;;;18.00;76.90;;;;;;5020115;28;20041;-51
2021/07/20 08:33:56;;;;;;;11.48;7.22;;;18.00;77.00;;;;;;5021207;28;20631;-51
2021/07/20 08:36:24;;;;;;;10.68;6.95;;;18.10;73.70;;;;;;5023127;28;20046;-51
2021/07/20 08:38:53;;;;;;;10.18;6.90;;;18.20;71.40;;;;;;5020010;28;20041;-52
2021/07/20 08:41:45;;;;;;;17.27;7.85;;;18.20;69.00;;;;;;5009194;28;20056;-52
2021/07/20 08:44:45;;;;;;;12.57;7.87;;;18.20;72.00;;;;;;5016632;28;20052;-54
2021/07/20 08:47:29;;;;;;;12.90;7.57;;;18.30;74.20;;;;;;5019568;28;20045;-53
2021/07/20 08:50:25;;;;;;;12.93;6.97;;;18.40;73.30;;;;;;5016267;28;20057;-53
2021/07/20 08:53:13;;;;;;;14.00;7.10;;;18.60;73.60;;;;;;5020452;28;20553;-52
2021/07/20 08:55:44;;;;;;;14.07;7.28;;;18.70;73.00;;;;;;5029203;28;20088;-53
2021/07/20 08:58:18;;;;;;;13.25;7.55;;;18.80;72.80;;;;;;5017343;28;20049;-53
2021/07/20 09:00:48;;;;;;;11.80;7.40;;;18.90;71.70;;;;;;5014007;28;20380;-53
2021/07/20 09:03:43;;;;;;;10.40;7.20;;;18.90;67.40;;;;;;4981294;28;20050;-54
2021/07/20 09:06:12;;;;;;;11.13;7.22;;;19.00;69.20;;;;;;5007155;28;20042;-53
2021/07/20 09:08:44;;;;;;;13.23;6.97;;;19.00;67.50;;;;;;5001821;28;20631;-52
2021/07/20 09:11:21;;;;;;;12.30;7.80;;;18.90;67.30;;;;;;5004406;28;20073;-53
2021/07/20 09:14:27;;;;;;;9.95;6.93;;;18.70;68.10;;;;;;5008854;28;20092;-53
2021/07/20 09:17:16;;;;;;;38.65;9.95;;;18.70;66.80;;;;;;5008002;28;20042;-54
2021/07/20 09:19:50;;;;;;;11.55;7.18;;;18.80;65.30;;;;;;5009373;28;20053;-54
2021/07/20 09:22:18;;;;;;;12.90;6.82;;;18.80;65.10;;;;;;5010287;28;20064;-52
2021/07/20 09:24:56;;;;;;;10.60;6.97;;;18.80;66.50;;;;;;4991162;28;20118;-52
2021/07/20 09:27:53;;;;;;;11.88;7.60;;;18.80;64.60;;;;;;5011729;28;20049;-52
2021/07/20 09:30:27;;;;;;;10.27;6.60;;;18.80;67.70;;;;;;5011820;28;20049;-52
2021/07/20 09:33:17;;;;;;;10.35;6.65;;;18.80;68.20;;;;;;4995797;28;20050;-52
2021/07/20 09:35:58;;;;;;;12.45;7.28;;;18.90;66.00;;;;;;5011717;28;20041;-53
2021/07/20 09:38:45;;;;;;;12.02;7.57;;;19.00;63.20;;;;;;5001297;28;20116;-53
2021/07/20 09:41:33;;;;;;;215.85;24.15;;;19.00;65.00;;;;;;5021639;28;20048;-53
2021/07/20 09:44:30;;;;;;;13.30;7.72;;;19.00;65.60;;;;;;5004897;28;20049;-54
2021/07/20 09:46:58;;;;;;;12.68;7.18;;;18.90;66.70;;;;;;5013808;28;20038;-54
2021/07/20 09:50:15;;;;;;;10.63;6.93;;;18.90;67.70;;;;;;5025552;28;20411;-51
2021/07/20 09:53:08;;;;;;;11.73;7.30;;;18.80;68.30;;;;;;4993615;28;20049;-52
2021/07/20 09:55:37;;;;;;;14.20;7.88;;;18.90;68.30;;;;;;5004906;28;20046;-54
2021/07/20 09:58:08;;;;;;;12.02;6.85;;;19.00;69.20;;;;;;5006269;28;20050;-53
2021/07/20 10:00:44;;;;;;;10.85;6.85;;;19.10;68.40;;;;;;5026924;28;20069;-51
2021/07/20 10:03:22;;;;;;;12.40;7.38;;;19.20;68.50;;;;;;5013445;28;20060;-52
2021/07/20 10:06:20;;;;;;;11.95;7.38;;;19.20;69.10;;;;;;5007942;28;20179;-52
2021/07/20 10:08:55;;;;;;;12.23;7.50;;;19.20;68.10;;;;;;5003495;28;20041;-53
2021/07/20 10:11:43;;;;;;;13.20;7.85;;;19.20;66.70;;;;;;5002627;28;20046;-53
2021/07/20 10:14:21;;;;;;;13.05;7.65;;;19.20;68.80;;;;;;5007453;28;20042;-55
2021/07/20 10:17:06;;;;;;;12.10;7.30;;;19.30;69.30;;;;;;5014633;28;20057;-54
2021/07/20 10:19:39;;;;;;;13.20;7.88;;;19.40;68.90;;;;;;5014611;28;20041;-52
2021/07/20 10:22:14;;;;;;;11.13;7.40;;;19.50;69.00;;;;;;5005333;28;20069;-53
2021/07/20 10:24:59;;;;;;;11.70;7.13;;;19.60;68.80;;;;;;5011196;28;20334;-53
2021/07/20 10:28:00;;;;;;;11.38;7.20;;;19.60;64.50;;;;;;5009105;28;20053;-53
2021/07/20 10:30:37;;;;;;;11.55;7.15;;;19.70;65.40;;;;;;5008462;28;20050;-52
2021/07/20 10:33:21;;;;;;;11.27;6.70;;;19.70;65.50;;;;;;5008527;28;20037;-50
2021/07/20 10:35:49;;;;;;;10.30;6.07;;;19.70;62.80;;;;;;5010158;28;20037;-55
2021/07/20 10:38:20;;;;;;;11.35;6.78;;;19.60;64.60;;;;;;4995386;28;20116;-55
2021/07/20 10:40:51;;;;;;;9.93;6.55;;;19.50;65.30;;;;;;4979725;28;20042;-54
2021/07/20 10:43:30;;;;;;;9.73;6.30;;;19.50;65.10;;;;;;5009069;28;20432;-52
2021/07/20 10:45:57;;;;;;;9.43;5.97;;;19.60;65.20;;;;;;4971843;28;20041;-54
2021/07/20 10:48:37;;;;;;;12.30;6.35;;;19.70;62.50;;;;;;5010150;28;20061;-53
2021/07/20 10:51:11;;;;;;;8.98;6.35;;;19.70;63.10;;;;;;5008294;28;20121;-54
2021/07/20 10:54:13;;;;;;;10.73;6.50;;;19.60;64.90;;;;;;5008033;28;20044;-54
2021/07/20 10:56:53;;;;;;;9.52;6.45;;;19.80;65.10;;;;;;5007510;28;20129;-51
2021/07/20 10:59:19;;;;;;;9.50;6.30;;;20.00;65.60;;;;;;5016363;28;20120;-53
2021/07/20 11:02:11;;;;;;;9.75;6.57;;;20.20;66.00;;;;;;5014481;28;20134;-52
2021/07/20 11:04:57;;;;;;;11.18;6.45;;;20.40;64.60;;;;;;5013224;28;20044;-51
2021/07/20 11:07:43;;;;;;;10.32;6.40;;;20.50;62.50;;;;;;5028373;28;20091;-53
2021/07/20 11:10:31;;;;;;;9.38;6.57;;;20.60;63.60;;;;;;5013480;28;20115;-50
2021/07/20 11:13:05;;;;;;;9.20;5.72;;;20.80;61.10;;;;;;5011796;28;20046;-53
2021/07/20 11:15:32;;;;;;;8.75;6.18;;;20.90;61.90;;;;;;5008703;28;20062;-55
2021/07/20 11:18:03;;;;;;;10.18;6.72;;;21.00;62.40;;;;;;5016705;28;20121;-55
2021/07/20 11:20:34;;;;;;;9.57;6.57;;;21.10;61.30;;;;;;5019294;28;20041;-51
2021/07/20 11:23:03;;;;;;;10.95;6.80;;;21.10;61.90;;;;;;4964399;28;20044;-50
2021/07/20 11:25:29;;;;;;;9.38;6.22;;;21.10;61.80;;;;;;5019383;28;20084;-52
2021/07/20 11:27:59;;;;;;;10.07;6.22;;;21.00;60.60;;;;;;5014353;28;20044;-55
2021/07/20 11:30:32;;;;;;;9.70;5.85;;;21.00;60.60;;;;;;5018385;28;20042;-51
2021/07/20 11:33:04;;;;;;;16.23;6.43;;;21.00;59.70;;;;;;5021572;28;20105;-51
2021/07/20 11:35:38;;;;;;;9.20;5.90;;;21.10;60.00;;;;;;5016217;28;20060;-53
2021/07/20 11:38:25;;;;;;;9.52;6.18;;;21.20;57.40;;;;;;5013119;28;20081;-50
2021/07/20 11:41:09;;;;;;;8.32;5.93;;;21.20;59.90;;;;;;5003181;28;21483;-52
2021/07/20 11:44:08;;;;;;;7.93;5.60;;;21.30;59.00;;;;;;5012164;28;20041;-51
2021/07/20 11:46:44;;;;;;;9.77;6.20;;;21.40;57.60;;;;;;5030130;28;20049;-51
2021/07/20 11:49:18;;;;;;;12.68;5.93;;;21.40;58.10;;;;;;5013138;28;20042;-51
2021/07/20 11:52:00;;;;;;;12.07;6.35;;;21.50;60.30;;;;;;4998523;28;20111;-52
2021/07/20 11:54:26;;;;;;;9.20;6.32;;;21.50;58.00;;;;;;5011380;28;20145;-52
2021/07/20 11:56:58;;;;;;;9.18;6.10;;;21.40;58.40;;;;;;5020032;28;20124;-54
2021/07/20 12:00:02;;;;;;;9.95;5.93;;;21.30;58.90;;;;;;5016013;28;20052;-53
2021/07/20 12:03:04;;;;;;;10.10;6.63;;;21.40;60.40;;;;;;5003252;28;20103;-51
2021/07/20 12:06:17;;;;;;;10.20;6.57;;;21.60;60.00;;;;;;5009642;28;20041;-54
2021/07/20 12:09:19;;;;;;;10.38;6.35;;;21.80;57.50;;;;;;5037849;28;20502;-53
2021/07/20 12:11:48;;;;;;;8.65;5.93;;;21.90;57.00;;;;;;5015754;28;20046;-56
2021/07/20 12:14:15;;;;;;;14.30;7.30;;;21.80;57.70;;;;;;5009440;28;20046;-56
2021/07/20 12:16:46;;;;;;;10.43;6.82;;;21.80;56.40;;;;;;5009095;28;20100;-55
2021/07/20 12:19:13;;;;;;;14.55;7.53;;;21.80;58.30;;;;;;5008909;28;20038;-52
2021/07/20 12:21:42;;;;;;;14.73;6.97;;;21.90;59.30;;;;;;5009840;28;20050;-54
2021/07/20 12:24:11;;;;;;;13.18;6.55;;;22.00;56.90;;;;;;5007956;28;20137;-56
2021/07/20 12:26:39;;;;;;;21.25;7.93;;;21.90;57.60;;;;;;5007021;28;20049;-55
2021/07/20 12:29:07;;;;;;;9.20;6.13;;;21.80;58.90;;;;;;5004247;28;20111;-54
2021/07/20 12:31:36;;;;;;;9.60;5.93;;;21.80;57.40;;;;;;4994294;28;20069;-54
2021/07/20 12:34:02;;;;;;;10.68;5.93;;;21.80;57.60;;;;;;5012415;28;20108;-52
2021/07/20 12:36:29;;;;;;;10.75;6.15;;;21.70;57.40;;;;;;4973896;28;20082;-54
2021/07/20 12:39:11;;;;;;;10.38;6.32;;;21.70;60.60;;;;;;5013885;28;20383;-55
2021/07/20 12:41:40;;;;;;;9.35;6.35;;;21.50;59.60;;;;;;5007701;28;20053;-51
2021/07/20 12:44:07;;;;;;;8.50;6.15;;;21.40;60.00;;;;;;5007778;28;20180;-53
2021/07/20 12:46:36;;;;;;;9.32;5.97;;;21.40;60.10;;;;;;4986950;28;20569;-53
2021/07/20 12:49:03;;;;;;;12.18;6.45;;;21.50;60.50;;;;;;5005034;28;20431;-51
2021/07/20 12:51:33;;;;;;;9.45;6.35;;;21.70;60.60;;;;;;5007944;28;20388;-52
2021/07/20 12:53:59;;;;;;;11.02;6.78;;;21.80;58.70;;;;;;5005049;28;20048;-53
2021/07/20 12:56:29;;;;;;;10.75;6.20;;;22.00;57.80;;;;;;5020465;28;20195;-51
2021/07/20 12:58:58;;;;;;;9.65;6.55;;;22.10;57.30;;;;;;5005893;28;20304;-52
2021/07/20 13:01:24;;;;;;;9.02;6.13;;;22.10;57.60;;;;;;5008379;28;20053;-52